Time;durP1;ratioP1;P1;durP2;ratioP2;P2;SDS_P1;SDS_P2;PMS_P1;PMS_P2;Temp;Humidity;BMP_temperature;BMP_pressure;BME280_temperature;BME280_humidity;BME280_pressure;Samples;Min_cycle;Max_cycle;Signal;HPM_P1;HPM_P2
2022/08/05 00:02:08;;;;;;;6.40;2.03;;;;;;;;;;10410241;28;20286;-71
2022/08/05 00:07:09;;;;;;;5.63;2.57;;;;;;;;;;10391248;28;20722;-70
2022/08/05 00:12:10;;;;;;;11.47;3.00;;;;;;;;;;10398528;28;20254;-69
2022/08/05 00:17:11;;;;;;;8.73;2.90;;;;;;;;;;10387671;28;20240;-71
2022/08/05 00:22:12;;;;;;;9.10;3.60;;;;;;;;;;10398255;28;20262;-71
2022/08/05 00:27:13;;;;;;;9.47;3.77;;;;;;;;;;10400459;28;20228;-69
2022/08/05 00:32:14;;;;;;;11.37;3.77;;;;;;;;;;10409207;28;20240;-69
2022/08/05 00:37:15;;;;;;;14.73;4.80;;;;;;;;;;10401992;28;20289;-71
2022/08/05 00:42:28;;;;;;;10.43;4.70;;;;;;;;;;10397704;28;20228;-69
2022/08/05 00:47:29;;;;;;;9.70;4.67;;;;;;;;;;10408499;28;20232;-69
2022/08/05 00:52:33;;;;;;;10.53;4.30;;;;;;;;;;10400467;28;20652;-70
2022/08/05 00:57:34;;;;;;;7.97;4.87;;;;;;;;;;10415720;28;20224;-70
2022/08/05 01:02:39;;;;;;;10.23;4.07;;;;;;;;;;10406753;28;20224;-73
2022/08/05 01:07:41;;;;;;;15.33;4.57;;;;;;;;;;10409188;28;20685;-74
2022/08/05 01:12:44;;;;;;;8.80;3.93;;;;;;;;;;10405130;28;20244;-73
2022/08/05 01:17:48;;;;;;;13.50;4.53;;;;;;;;;;10405540;28;20228;-73
2022/08/05 01:23:10;;;;;;;7.27;3.73;;;;;;;;;;10414389;28;20212;-72
2022/08/05 01:28:26;;;;;;;10.10;3.53;;;;;;;;;;10396543;28;20311;-73
2022/08/05 01:33:30;;;;;;;6.53;3.37;;;;;;;;;;10419015;28;20228;-73
2022/08/05 01:38:32;;;;;;;4.20;3.20;;;;;;;;;;10414055;28;20251;-73
2022/08/05 01:43:33;;;;;;;9.93;3.33;;;;;;;;;;10407114;28;20286;-73
2022/08/05 01:48:35;;;;;;;10.23;3.20;;;;;;;;;;10404840;28;20221;-73
2022/08/05 01:53:36;;;;;;;10.37;3.60;;;;;;;;;;10407884;28;20279;-73
2022/08/05 01:58:37;;;;;;;11.77;3.60;;;;;;;;;;10407240;28;20213;-72
2022/08/05 02:03:43;;;;;;;7.30;4.30;;;;;;;;;;10407077;28;20221;-74
2022/08/05 02:08:47;;;;;;;5.37;3.20;;;;;;;;;;10401926;28;20224;-74
2022/08/05 02:14:00;;;;;;;7.20;3.50;;;;;;;;;;10411505;28;20229;-74
2022/08/05 02:19:05;;;;;;;6.37;3.07;;;;;;;;;;10413807;28;20335;-74
2022/08/05 02:24:08;;;;;;;7.77;3.20;;;;;;;;;;10415533;28;20235;-74
2022/08/05 02:29:11;;;;;;;4.90;3.13;;;;;;;;;;10403523;28;20242;-72
2022/08/05 02:34:13;;;;;;;5.07;3.40;;;;;;;;;;10410088;28;20612;-74
2022/08/05 02:39:15;;;;;;;4.90;2.87;;;;;;;;;;10398104;28;20279;-76
2022/08/05 02:44:17;;;;;;;4.90;3.10;;;;;;;;;;10413038;28;20225;-74
2022/08/05 02:49:18;;;;;;;6.60;3.30;;;;;;;;;;10400716;28;20231;-73
2022/08/05 02:54:20;;;;;;;5.00;3.10;;;;;;;;;;10397485;28;20706;-73
2022/08/05 02:59:25;;;;;;;6.10;2.80;;;;;;;;;;10381968;28;20222;-73
2022/08/05 03:04:29;;;;;;;8.37;3.80;;;;;;;;;;10404388;28;20314;-72
2022/08/05 03:09:31;;;;;;;7.27;3.20;;;;;;;;;;10394849;28;20236;-73
2022/08/05 03:14:32;;;;;;;7.23;3.73;;;;;;;;;;10400890;28;20236;-72
2022/08/05 03:19:32;;;;;;;7.30;3.40;;;;;;;;;;10397276;28;20235;-72
2022/08/05 03:24:34;;;;;;;6.17;3.83;;;;;;;;;;10400879;28;20224;-73
2022/08/05 03:29:35;;;;;;;5.40;3.67;;;;;;;;;;10411072;28;20690;-73
2022/08/05 03:34:36;;;;;;;4.00;3.10;;;;;;;;;;10404800;28;20224;-73
2022/08/05 03:39:37;;;;;;;5.43;3.90;;;;;;;;;;10403743;28;20224;-75
2022/08/05 03:44:38;;;;;;;5.93;3.80;;;;;;;;;;10406579;28;20660;-74
2022/08/05 03:49:39;;;;;;;8.63;4.50;;;;;;;;;;10404381;28;20267;-71
2022/08/05 03:55:03;;;;;;;11.60;5.10;;;;;;;;;;10407135;28;20228;-72
2022/08/05 04:00:09;;;;;;;10.07;4.87;;;;;;;;;;10401375;28;20217;-72
2022/08/05 04:05:11;;;;;;;6.70;4.13;;;;;;;;;;10397910;28;20254;-72
2022/08/05 04:10:12;;;;;;;8.07;4.53;;;;;;;;;;10406030;28;20699;-71
2022/08/05 04:15:13;;;;;;;5.17;4.37;;;;;;;;;;10406648;28;20196;-70
2022/08/05 04:20:18;;;;;;;9.87;5.13;;;;;;;;;;10406750;28;20194;-68
2022/08/05 04:25:19;;;;;;;10.57;4.80;;;;;;;;;;10404569;28;20191;-69
2022/08/05 04:30:20;;;;;;;5.67;4.03;;;;;;;;;;10402572;28;20300;-71
2022/08/05 04:35:21;;;;;;;9.57;4.70;;;;;;;;;;10384964;28;20278;-71
2022/08/05 04:40:23;;;;;;;6.33;4.70;;;;;;;;;;10407451;28;20328;-72
2022/08/05 04:45:24;;;;;;;9.10;4.77;;;;;;;;;;10402018;28;22942;-73
2022/08/05 04:50:26;;;;;;;8.20;4.93;;;;;;;;;;10397669;28;21051;-71
2022/08/05 04:55:27;;;;;;;8.57;5.17;;;;;;;;;;10407901;28;20337;-72
2022/08/05 05:00:29;;;;;;;8.30;6.10;;;;;;;;;;10410537;28;20425;-70
2022/08/05 05:05:30;;;;;;;9.90;5.83;;;;;;;;;;10394920;28;20723;-70
2022/08/05 05:10:32;;;;;;;9.37;5.90;;;;;;;;;;10388310;28;20593;-70
2022/08/05 05:15:34;;;;;;;9.57;6.37;;;;;;;;;;10386388;28;20308;-69
2022/08/05 05:20:35;;;;;;;12.53;6.17;;;;;;;;;;10378483;28;20212;-69
2022/08/05 05:25:36;;;;;;;10.40;6.30;;;;;;;;;;10398272;28;20223;-69
2022/08/05 05:30:40;;;;;;;6.67;5.50;;;;;;;;;;10403798;28;20230;-71
2022/08/05 05:35:41;;;;;;;9.13;5.90;;;;;;;;;;10386885;28;20676;-69
2022/08/05 05:40:43;;;;;;;8.97;5.93;;;;;;;;;;10403731;28;20232;-70
2022/08/05 05:45:44;;;;;;;9.67;5.47;;;;;;;;;;10407626;28;20236;-73
2022/08/05 05:50:45;;;;;;;10.77;5.33;;;;;;;;;;10407620;28;20352;-74
2022/08/05 05:55:46;;;;;;;8.60;4.93;;;;;;;;;;10405828;28;20274;-73
2022/08/05 06:00:47;;;;;;;7.83;5.33;;;;;;;;;;10411841;28;20278;-72
2022/08/05 06:05:49;;;;;;;4.77;4.37;;;;;;;;;;10398724;28;20219;-73
2022/08/05 06:10:50;;;;;;;6.13;4.00;;;;;;;;;;10403369;28;20232;-72
2022/08/05 06:15:51;;;;;;;4.90;3.53;;;;;;;;;;10401749;28;20224;-72
2022/08/05 06:20:52;;;;;;;6.77;3.73;;;;;;;;;;10410256;28;20226;-72
2022/08/05 06:25:53;;;;;;;5.83;3.90;;;;;;;;;;10412181;28;20236;-72
2022/08/05 06:30:54;;;;;;;6.10;3.43;;;;;;;;;;10403757;28;20220;-72
2022/08/05 06:35:55;;;;;;;6.07;3.53;;;;;;;;;;10411036;28;20225;-73
2022/08/05 06:40:56;;;;;;;6.07;3.47;;;;;;;;;;10409097;28;20228;-72
2022/08/05 06:45:57;;;;;;;4.97;3.07;;;;;;;;;;10394721;28;20220;-72
2022/08/05 06:50:58;;;;;;;4.17;2.90;;;;;;;;;;10406324;28;20229;-72
2022/08/05 06:56:03;;;;;;;6.13;3.20;;;;;;;;;;10401842;28;20220;-72
2022/08/05 07:01:05;;;;;;;6.27;3.53;;;;;;;;;;10403513;28;20295;-72
2022/08/05 07:06:06;;;;;;;3.83;3.00;;;;;;;;;;10402106;28;20696;-72
2022/08/05 07:11:07;;;;;;;5.07;3.13;;;;;;;;;;10408740;28;20239;-73
2022/08/05 07:21:28;;;;;;;3.60;2.90;;;;;;;;;;10408956;28;20224;-71
2022/08/05 07:26:29;;;;;;;4.40;2.63;;;;;;;;;;10404152;28;20691;-72
2022/08/05 07:31:30;;;;;;;3.50;2.87;;;;;;;;;;10403441;28;20236;-71
2022/08/05 07:36:32;;;;;;;7.00;3.53;;;;;;;;;;10399858;28;20538;-72
2022/08/05 07:41:33;;;;;;;4.80;3.57;;;;;;;;;;10385991;28;20216;-71
2022/08/05 07:46:34;;;;;;;5.13;3.10;;;;;;;;;;10409134;28;20745;-72
2022/08/05 07:51:36;;;;;;;4.00;3.60;;;;;;;;;;10398592;28;20232;-71
2022/08/05 07:56:38;;;;;;;4.60;3.63;;;;;;;;;;10401963;28;20235;-71
2022/08/05 08:01:39;;;;;;;7.37;3.47;;;;;;;;;;10396827;28;20228;-70
2022/08/05 08:06:40;;;;;;;9.83;4.00;;;;;;;;;;10402318;28;20708;-70
2022/08/05 08:11:41;;;;;;;6.87;3.70;;;;;;;;;;10399833;28;20228;-71
2022/08/05 08:16:42;;;;;;;6.10;3.73;;;;;;;;;;10402859;28;20231;-70
2022/08/05 08:21:43;;;;;;;9.33;3.67;;;;;;;;;;10402822;28;20216;-71
2022/08/05 08:26:49;;;;;;;6.33;3.80;;;;;;;;;;10398993;28;20291;-71
2022/08/05 08:31:50;;;;;;;10.30;4.10;;;;;;;;;;10404304;28;20598;-71
2022/08/05 08:36:52;;;;;;;7.00;3.50;;;;;;;;;;10392896;28;20230;-69
2022/08/05 08:41:55;;;;;;;5.10;3.03;;;;;;;;;;10398684;28;20227;-70
2022/08/05 08:46:56;;;;;;;3.70;3.40;;;;;;;;;;10400945;28;20334;-72
2022/08/05 08:52:18;;;;;;;5.53;2.90;;;;;;;;;;10403468;28;20228;-71
2022/08/05 08:57:19;;;;;;;4.60;2.90;;;;;;;;;;10402860;28;20227;-71
2022/08/05 09:02:20;;;;;;;3.43;2.70;;;;;;;;;;10399633;28;20246;-71
2022/08/05 09:07:21;;;;;;;5.13;2.80;;;;;;;;;;10396424;28;20218;-69
2022/08/05 09:12:22;;;;;;;3.10;2.80;;;;;;;;;;10416973;28;20236;-70
2022/08/05 09:17:23;;;;;;;3.93;2.90;;;;;;;;;;10413273;28;20287;-70
2022/08/05 09:22:24;;;;;;;4.80;2.40;;;;;;;;;;10410899;28;20278;-72
2022/08/05 09:27:33;;;;;;;3.70;2.90;;;;;;;;;;10412799;28;20218;-71
2022/08/05 09:32:38;;;;;;;4.93;3.03;;;;;;;;;;10410754;28;20672;-72
2022/08/05 09:37:49;;;;;;;4.50;2.97;;;;;;;;;;10409213;28;20303;-70
2022/08/05 09:42:50;;;;;;;5.13;2.80;;;;;;;;;;10406582;28;20228;-70
2022/08/05 09:47:51;;;;;;;3.70;2.73;;;;;;;;;;10401730;28;20696;-70
2022/08/05 09:52:57;;;;;;;5.23;2.70;;;;;;;;;;10388314;28;20228;-71
2022/08/05 09:57:58;;;;;;;4.43;2.37;;;;;;;;;;10407301;28;20213;-69
2022/08/05 10:03:08;;;;;;;3.80;2.40;;;;;;;;;;10406549;28;20213;-70
2022/08/05 10:08:09;;;;;;;2.73;2.53;;;;;;;;;;10405614;28;20220;-70
2022/08/05 10:13:10;;;;;;;5.60;2.70;;;;;;;;;;10387161;28;20231;-72
2022/08/05 10:18:12;;;;;;;2.87;2.60;;;;;;;;;;10408061;28;20223;-71
2022/08/05 10:23:15;;;;;;;3.53;2.40;;;;;;;;;;10396400;28;20261;-72
2022/08/05 10:28:17;;;;;;;2.30;2.10;;;;;;;;;;10397837;28;20302;-72
2022/08/05 10:33:18;;;;;;;4.37;2.40;;;;;;;;;;10404202;28;20273;-72
2022/08/05 10:38:20;;;;;;;2.93;2.10;;;;;;;;;;10402766;28;20589;-73
2022/08/05 10:43:31;;;;;;;4.13;2.07;;;;;;;;;;10399505;28;20232;-72
2022/08/05 10:48:34;;;;;;;2.07;1.73;;;;;;;;;;10411924;28;20683;-71
2022/08/05 10:53:52;;;;;;;2.30;2.00;;;;;;;;;;10387838;28;20382;-72
2022/08/05 10:58:53;;;;;;;2.53;2.00;;;;;;;;;;10409611;28;20223;-72
2022/08/05 11:04:16;;;;;;;2.60;1.70;;;;;;;;;;10406581;28;20231;-72
2022/08/05 11:09:18;;;;;;;2.50;2.30;;;;;;;;;;10410091;28;20220;-71
2022/08/05 11:14:23;;;;;;;3.03;2.40;;;;;;;;;;10407350;28;20277;-72
2022/08/05 11:19:28;;;;;;;2.70;2.50;;;;;;;;;;10408722;28;20695;-72
2022/08/05 11:24:30;;;;;;;3.93;2.50;;;;;;;;;;10410859;28;20270;-74
2022/08/05 11:29:35;;;;;;;2.77;2.50;;;;;;;;;;10409215;28;20232;-71
2022/08/05 11:34:38;;;;;;;3.30;2.40;;;;;;;;;;10406171;28;20227;-72
2022/08/05 11:39:58;;;;;;;3.43;2.20;;;;;;;;;;10408083;28;20216;-74
2022/08/05 11:45:03;;;;;;;2.90;2.60;;;;;;;;;;10407959;28;20299;-71
2022/08/05 11:50:06;;;;;;;2.50;2.30;;;;;;;;;;10405958;28;20310;-72
2022/08/05 11:55:07;;;;;;;2.67;2.47;;;;;;;;;;10408568;28;20230;-72
2022/08/05 12:00:25;;;;;;;2.67;2.47;;;;;;;;;;10408088;28;20202;-72
2022/08/05 12:05:26;;;;;;;2.57;2.30;;;;;;;;;;10417668;28;20290;-73
2022/08/05 12:10:30;;;;;;;2.90;2.70;;;;;;;;;;10387891;28;20224;-72
2022/08/05 12:15:31;;;;;;;3.00;2.70;;;;;;;;;;10398467;28;20659;-72
2022/08/05 12:20:37;;;;;;;4.17;2.50;;;;;;;;;;10402853;28;20769;-71
2022/08/05 12:25:54;;;;;;;3.20;2.50;;;;;;;;;;10401644;28;20643;-73
2022/08/05 12:36:35;;;;;;;2.90;2.60;;;;;;;;;;10396842;28;20303;-72
2022/08/05 12:41:37;;;;;;;2.97;2.67;;;;;;;;;;10391434;28;20358;-72
2022/08/05 12:46:40;;;;;;;5.83;3.33;;;;;;;;;;10407929;28;20229;-71
2022/08/05 12:51:46;;;;;;;4.80;2.70;;;;;;;;;;10413916;28;20761;-71
2022/08/05 12:56:49;;;;;;;3.00;2.80;;;;;;;;;;10414025;28;20592;-74
2022/08/05 13:02:06;;;;;;;3.63;2.80;;;;;;;;;;10414886;28;20224;-72
2022/08/05 13:07:11;;;;;;;4.97;3.27;;;;;;;;;;10413362;28;20224;-72
2022/08/05 13:12:14;;;;;;;3.50;3.20;;;;;;;;;;10410381;28;20669;-72
2022/08/05 13:17:15;;;;;;;3.77;3.30;;;;;;;;;;10410437;28;20244;-71
2022/08/05 13:22:16;;;;;;;3.30;2.97;;;;;;;;;;10410711;28;20314;-72
2022/08/05 13:27:30;;;;;;;3.73;3.40;;;;;;;;;;10412538;28;20212;-70
2022/08/05 13:32:32;;;;;;;5.50;3.60;;;;;;;;;;10409983;28;20234;-71
2022/08/05 13:37:33;;;;;;;4.77;3.30;;;;;;;;;;10411006;28;20278;-72
2022/08/05 13:42:34;;;;;;;3.97;3.53;;;;;;;;;;10411242;28;20228;-71
2022/08/05 13:47:36;;;;;;;5.50;3.70;;;;;;;;;;10410195;28;20226;-72
2022/08/05 13:52:37;;;;;;;3.77;3.37;;;;;;;;;;10410113;28;20224;-72
2022/08/05 13:57:38;;;;;;;4.87;3.67;;;;;;;;;;10411801;28;20217;-72
2022/08/05 14:02:39;;;;;;;4.30;3.20;;;;;;;;;;10409352;28;20245;-70
2022/08/05 14:07:41;;;;;;;6.03;3.53;;;;;;;;;;10410542;28;20880;-69
2022/08/05 14:12:43;;;;;;;3.70;3.40;;;;;;;;;;10411429;28;20714;-72
2022/08/05 14:17:44;;;;;;;4.33;3.93;;;;;;;;;;10410606;28;20284;-71
2022/08/05 14:22:45;;;;;;;4.83;3.87;;;;;;;;;;10411094;28;20220;-70
2022/08/05 14:27:47;;;;;;;5.20;3.63;;;;;;;;;;10395432;28;20224;-70
2022/08/05 14:32:51;;;;;;;5.63;4.07;;;;;;;;;;10410387;28;20228;-70
2022/08/05 14:37:52;;;;;;;5.03;4.53;;;;;;;;;;10409950;28;20231;-70
2022/08/05 14:42:53;;;;;;;4.73;4.33;;;;;;;;;;10409256;28;20232;-70
2022/08/05 14:47:54;;;;;;;5.33;4.87;;;;;;;;;;10410664;28;20603;-70
2022/08/05 14:52:56;;;;;;;8.60;6.83;;;;;;;;;;10395841;28;20232;-69
2022/08/05 14:57:58;;;;;;;8.93;8.13;;;;;;;;;;10409120;28;20213;-70
2022/08/05 15:02:58;;;;;;;9.27;8.47;;;;;;;;;;10408790;28;20267;-71
2022/08/05 15:08:03;;;;;;;11.60;10.60;;;;;;;;;;10409093;28;20286;-70
2022/08/05 15:13:05;;;;;;;12.40;11.17;;;;;;;;;;10408172;28;20311;-70
2022/08/05 15:18:06;;;;;;;13.37;12.07;;;;;;;;;;10408901;28;20703;-71
2022/08/05 15:23:11;;;;;;;12.90;11.83;;;;;;;;;;10407210;28;20252;-70
2022/08/05 15:28:13;;;;;;;13.53;12.33;;;;;;;;;;10398818;28;20232;-70
2022/08/05 15:33:14;;;;;;;14.00;12.70;;;;;;;;;;10407465;28;20426;-69
2022/08/05 15:38:15;;;;;;;14.23;12.23;;;;;;;;;;10405843;28;20253;-71
2022/08/05 15:43:16;;;;;;;11.93;10.83;;;;;;;;;;10407257;28;20327;-70
2022/08/05 15:48:19;;;;;;;12.40;11.30;;;;;;;;;;10404337;28;20231;-69
2022/08/05 15:53:20;;;;;;;11.97;10.97;;;;;;;;;;10399877;28;20231;-69
2022/08/05 15:58:21;;;;;;;13.03;11.93;;;;;;;;;;10398221;28;20221;-68
2022/08/05 16:03:22;;;;;;;11.40;10.40;;;;;;;;;;10398769;28;20292;-70
2022/08/05 16:08:23;;;;;;;9.87;9.07;;;;;;;;;;10397808;28;20312;-69
2022/08/05 16:13:25;;;;;;;10.53;9.43;;;;;;;;;;10400270;28;20337;-70
2022/08/05 16:18:26;;;;;;;9.13;8.27;;;;;;;;;;10388046;28;20220;-70
2022/08/05 16:23:27;;;;;;;7.80;7.00;;;;;;;;;;10390526;28;20224;-70
2022/08/05 16:28:28;;;;;;;6.80;6.10;;;;;;;;;;10396200;28;20225;-70
2022/08/05 16:33:31;;;;;;;6.27;5.67;;;;;;;;;;10383539;28;20246;-71
2022/08/05 16:38:32;;;;;;;6.10;5.57;;;;;;;;;;10386883;28;20258;-70
2022/08/05 16:43:34;;;;;;;5.90;5.30;;;;;;;;;;10388561;28;20247;-70
2022/08/05 16:48:36;;;;;;;4.60;4.20;;;;;;;;;;10387635;28;20228;-70
2022/08/05 16:53:40;;;;;;;4.30;3.70;;;;;;;;;;10391382;28;20300;-70
2022/08/05 16:58:42;;;;;;;3.30;3.00;;;;;;;;;;10387071;28;20228;-71
2022/08/05 17:03:43;;;;;;;3.53;3.13;;;;;;;;;;10388378;28;20226;-69
2022/08/05 17:08:44;;;;;;;2.97;2.50;;;;;;;;;;10392656;28;20228;-69
2022/08/05 17:13:45;;;;;;;2.70;2.40;;;;;;;;;;10395705;28;20311;-70
2022/08/05 17:18:46;;;;;;;2.40;2.20;;;;;;;;;;10374461;28;20652;-70
2022/08/05 17:23:47;;;;;;;3.27;2.10;;;;;;;;;;10392445;28;20217;-70
2022/08/05 17:28:49;;;;;;;4.00;1.90;;;;;;;;;;10390167;28;20295;-70
2022/08/05 17:33:50;;;;;;;2.80;1.97;;;;;;;;;;10398410;28;20225;-72
2022/08/05 17:38:51;;;;;;;3.10;1.77;;;;;;;;;;10396629;28;20689;-72
2022/08/05 17:43:52;;;;;;;1.80;1.50;;;;;;;;;;10399998;28;20752;-70
2022/08/05 17:48:54;;;;;;;1.87;1.30;;;;;;;;;;10394093;28;20303;-71
2022/08/05 17:53:55;;;;;;;2.40;1.60;;;;;;;;;;10410684;28;20224;-72
2022/08/05 17:58:56;;;;;;;3.27;1.30;;;;;;;;;;10392581;28;20316;-71
2022/08/05 18:03:57;;;;;;;2.57;1.53;;;;;;;;;;10396767;28;20237;-72
2022/08/05 18:08:58;;;;;;;1.97;1.17;;;;;;;;;;10404135;28;20598;-71
2022/08/05 18:14:00;;;;;;;4.53;1.60;;;;;;;;;;10390318;28;20649;-71
2022/08/05 18:19:01;;;;;;;2.37;1.20;;;;;;;;;;10397992;28;20228;-71
2022/08/05 18:24:03;;;;;;;2.27;1.03;;;;;;;;;;10383727;28;20232;-71
2022/08/05 18:29:07;;;;;;;3.17;1.17;;;;;;;;;;10398201;28;20224;-71
2022/08/05 18:34:11;;;;;;;1.23;1.00;;;;;;;;;;10389948;28;20221;-71
2022/08/05 18:39:12;;;;;;;2.53;1.50;;;;;;;;;;10401959;28;20213;-71
2022/08/05 18:44:13;;;;;;;2.70;1.63;;;;;;;;;;10397747;28;20243;-71
2022/08/05 18:54:34;;;;;;;2.93;1.60;;;;;;;;;;10388091;28;20614;-72
2022/08/05 18:59:35;;;;;;;3.13;1.60;;;;;;;;;;10394903;28;20221;-72
2022/08/05 19:04:36;;;;;;;5.70;1.70;;;;;;;;;;10392587;28;20309;-71
2022/08/05 19:09:37;;;;;;;1.77;1.50;;;;;;;;;;10394395;28;20224;-73
2022/08/05 19:14:38;;;;;;;4.23;1.43;;;;;;;;;;10392128;28;20234;-71
2022/08/05 19:19:42;;;;;;;1.90;1.30;;;;;;;;;;10390984;28;20217;-71
2022/08/05 19:24:43;;;;;;;5.03;1.50;;;;;;;;;;10381314;28;20251;-72
2022/08/05 19:29:45;;;;;;;3.33;1.67;;;;;;;;;;10402504;28;20704;-72
2022/08/05 19:34:47;;;;;;;3.67;1.60;;;;;;;;;;10397344;28;20283;-71
2022/08/05 19:39:48;;;;;;;3.20;1.40;;;;;;;;;;10381419;28;20220;-73
2022/08/05 19:44:49;;;;;;;1.13;1.03;;;;;;;;;;10390138;28;20230;-70
2022/08/05 19:49:50;;;;;;;1.53;1.10;;;;;;;;;;10395082;28;20235;-71
2022/08/05 19:54:51;;;;;;;2.70;1.40;;;;;;;;;;10386972;28;20239;-71
2022/08/05 19:59:52;;;;;;;2.07;1.00;;;;;;;;;;10390548;28;20272;-71
2022/08/05 20:04:54;;;;;;;2.57;1.60;;;;;;;;;;10392633;28;20220;-71
2022/08/05 20:09:55;;;;;;;2.27;1.40;;;;;;;;;;10403310;28;20219;-71
2022/08/05 20:14:56;;;;;;;3.00;1.50;;;;;;;;;;10389494;28;20228;-71
2022/08/05 20:19:57;;;;;;;1.83;1.50;;;;;;;;;;10394835;28;20260;-71
2022/08/05 20:24:59;;;;;;;2.40;1.40;;;;;;;;;;10386592;28;20220;-72
2022/08/05 20:30:00;;;;;;;3.50;2.00;;;;;;;;;;10397380;28;20216;-72
2022/08/05 20:35:01;;;;;;;3.90;1.80;;;;;;;;;;10393262;28;20227;-71
2022/08/05 20:40:01;;;;;;;1.97;1.40;;;;;;;;;;10385538;28;20220;-73
2022/08/05 20:45:03;;;;;;;3.20;1.40;;;;;;;;;;10390834;28;20224;-73
2022/08/05 20:50:05;;;;;;;3.13;1.73;;;;;;;;;;10384498;28;20227;-67
2022/08/05 20:55:06;;;;;;;2.70;1.60;;;;;;;;;;10392558;28;20210;-70
2022/08/05 21:00:08;;;;;;;4.40;1.40;;;;;;;;;;10392442;28;20203;-70
2022/08/05 21:05:12;;;;;;;5.93;1.60;;;;;;;;;;10383077;28;20217;-72
2022/08/05 21:10:13;;;;;;;3.67;1.50;;;;;;;;;;10395179;28;20197;-74
2022/08/05 21:15:15;;;;;;;3.20;1.20;;;;;;;;;;10400003;28;20223;-73
2022/08/05 21:20:16;;;;;;;1.60;1.50;;;;;;;;;;10390405;28;20184;-72
2022/08/05 21:25:17;;;;;;;2.80;1.40;;;;;;;;;;10400592;28;20192;-72
2022/08/05 21:30:18;;;;;;;2.60;1.33;;;;;;;;;;10399460;28;20192;-74
2022/08/05 21:35:20;;;;;;;2.30;1.30;;;;;;;;;;10398407;28;20690;-73
2022/08/05 21:40:25;;;;;;;2.97;1.40;;;;;;;;;;10400093;28;20181;-73
2022/08/05 21:45:26;;;;;;;2.50;1.20;;;;;;;;;;10400499;28;20303;-72
2022/08/05 21:50:27;;;;;;;2.27;1.20;;;;;;;;;;10399654;28;20649;-73
2022/08/05 21:55:28;;;;;;;2.97;1.80;;;;;;;;;;10397430;28;20267;-73
2022/08/05 22:00:29;;;;;;;2.63;1.50;;;;;;;;;;10388176;28;20228;-72
2022/08/05 22:05:30;;;;;;;2.63;1.60;;;;;;;;;;10397044;28;20277;-72
2022/08/05 22:10:31;;;;;;;4.37;1.70;;;;;;;;;;10398179;28;20278;-72
2022/08/05 22:15:32;;;;;;;2.27;1.50;;;;;;;;;;10400277;28;20267;-72
2022/08/05 22:20:33;;;;;;;2.13;1.73;;;;;;;;;;10397357;28;20227;-72
2022/08/05 22:30:54;;;;;;;3.97;1.90;;;;;;;;;;10394531;28;20259;-71
2022/08/05 22:35:55;;;;;;;2.80;1.97;;;;;;;;;;10410914;28;20227;-72
2022/08/05 22:40:56;;;;;;;2.97;2.00;;;;;;;;;;10392137;28;20239;-73
2022/08/05 22:45:57;;;;;;;1.67;1.50;;;;;;;;;;10394030;28;20220;-73
2022/08/05 22:51:02;;;;;;;2.17;1.53;;;;;;;;;;10396725;28;20231;-74
2022/08/05 22:56:03;;;;;;;1.67;1.50;;;;;;;;;;10397471;28;20238;-73
2022/08/05 23:01:04;;;;;;;3.37;1.60;;;;;;;;;;10397335;28;20223;-73
2022/08/05 23:06:05;;;;;;;1.97;1.53;;;;;;;;;;10387728;28;20228;-73
2022/08/05 23:11:06;;;;;;;5.47;1.97;;;;;;;;;;10393493;28;20231;-73
2022/08/05 23:16:07;;;;;;;4.87;2.10;;;;;;;;;;10385581;28;20228;-72
2022/08/05 23:21:11;;;;;;;4.97;2.03;;;;;;;;;;10395380;28;20234;-71
2022/08/05 23:26:12;;;;;;;3.90;2.10;;;;;;;;;;10386915;28;20260;-70
2022/08/05 23:31:13;;;;;;;5.33;2.20;;;;;;;;;;10402938;28;20698;-70
2022/08/05 23:36:14;;;;;;;2.80;1.80;;;;;;;;;;10398746;28;20251;-72
2022/08/05 23:41:15;;;;;;;3.17;1.90;;;;;;;;;;10394547;28;20282;-71
2022/08/05 23:46:17;;;;;;;5.27;1.80;;;;;;;;;;10387618;28;20601;-72
2022/08/05 23:51:20;;;;;;;3.00;2.27;;;;;;;;;;10387775;28;20239;-73
2022/08/05 23:56:21;;;;;;;3.33;1.80;;;;;;;;;;10393100;28;20250;-72
